KR-0337 weather

Ciel de Mer Hotel Heliports
Haeundae (Busan), Busan Gwang'yeogsi, South Korea

Public forecast

Using degrees Celsius for public forecast. Weather courtesy of forecast.io.

METAR (pilot weather report)

Closest report is Gimhae International Airport, 11.3 nm (20.9 km) W. Retrieved 2019/08/24 11:00 UTC (50 minutes ago):

RKPK 241100Z 24003KT CAVOK 25/20 Q1011

TAF (pilot weather forecast)

Closest forecast is Gimhae International Airport, 11.3 nm (20.9 km) W. Retrieved 2019/08/24 06:00 UTC (6 hours ago):

TAF COR RKPK 240500Z 2406/2512 24008KT 9999 SCT030 BKN200 TN19/2420Z TX28/2504Z BECMG 2411/2412 33006KT BECMG 2504/2505 24008KT